الصفحة الرئيسية
METAR-TAF:

METAR-TAF

مطار :

مطار إنديانابوليس الدولي

إنديانابوليس, إنديانا, الولايات المتحدة

دائرة عرض: 39-43-30N, خط طول: 086-16-55W, ارتفاع: 243 متر

مراقبة الطقس الحالي

تاريخ ووقت الإصدار 45 دقيقة قبل الساعة 14:54UTC
ريح 14 عقدة من الغرب/الجنوب الغربي
درجة الحرارة 1°درجة مئوية
الرطوبة 80%
ضغط 1016 hPa
الرؤية: 14.5 كم
غيوم قليلة على ارتفاع 1300 قدم
غيوم مفككة على ارتفاع 2000 قدم
ملبد بالغيوم على ارتفاع 2800 قدم

METAR: KIND 161454Z 25014KT 9SM FEW013 BKN020 OVC028 01/M02 A2999 RMK AO2 SLP161 T00061017 53019

زمن: 10:39 (15:39 UTC)

توقعات

تاريخ ووقت الإصدار 1ساعة و 12 دقيقة قبل الساعة 14:27UTC
التوقعات صالحة من16 الساعة 14 UTC إلى 17 الساعة 18 UTC
ريح 12 عقدة من الغرب/الجنوب الغربي
الرؤية: 10 كم
غيوم مفككة على ارتفاع 1500 قدم
من 17 الساعة 0600 UTC
ريح 3 عقدةمن اتجاهات متغيرة
الرؤية: 10 كم
غيوم مفككة على ارتفاع 1200 قدم

TAF: KIND 161427Z 1614/1718 24012KT P6SM BKN015 FM170600 VRB03KT P6SM BKN012

أرصاد الطقس والتوقعات من أكثر من 4000 مطار (تقارير الطقس للمطار METAR والتنبؤ بالطقس بالمطارTAF).

المحطات المتاحة هي النقط الصفراء والحمراء على الخريطة.

حرك المؤشر فوق النقطة لمعرفة اسم المحطة.

ثم انقر لمعرفة أرصاد وتوقعات الطقس.

لتغيير الخارطة: اضغط على الأزرار الخضراء مع رمز الصليب الأسود للتكبير. على الزر الأخضر مع شرطة للتصغير، أو على الأسهم الخضراء للخرائط المجاورة.


METAR-TAF: